createdAt,value
2023-09-20T00:02:13.854Z,0.75
2023-09-20T00:04:41.798Z,1.95
2023-09-20T00:07:08.549Z,2.08
2023-09-20T00:09:35.842Z,3.45
2023-09-20T00:12:02.857Z,0.45
2023-09-20T00:14:30.441Z,2.92
2023-09-20T00:16:58.723Z,2.15
2023-09-20T00:19:25.717Z,2.47
2023-09-20T00:21:52.452Z,1.10
2023-09-20T00:24:19.281Z,1.60
2023-09-20T00:26:46.041Z,2.30
2023-09-20T00:29:13.463Z,2.28
2023-09-20T00:31:40.664Z,4.03
2023-09-20T00:34:07.485Z,1.20
2023-09-20T00:36:34.233Z,3.47
2023-09-20T00:39:05.117Z,2.63
2023-09-20T00:41:33.289Z,2.13
2023-09-20T00:44:01.513Z,4.68
2023-09-20T00:46:29.171Z,1.38
2023-09-20T00:48:57.001Z,2.03
2023-09-20T00:51:27.333Z,2.85
2023-09-20T00:53:58.554Z,3.05
2023-09-20T00:56:25.910Z,3.25
2023-09-20T00:58:54.744Z,2.03
2023-09-20T01:01:22.610Z,3.25
2023-09-20T01:03:49.780Z,2.45
2023-09-20T01:06:19.002Z,5.00
2023-09-20T01:08:47.998Z,6.68
2023-09-20T01:11:16.938Z,3.28
2023-09-20T01:13:45.329Z,3.42
2023-09-20T01:16:14.401Z,0.77
2023-09-20T01:18:41.470Z,5.45
2023-09-20T01:21:08.477Z,2.67
2023-09-20T01:23:36.489Z,1.98
2023-09-20T01:26:05.135Z,3.60
2023-09-20T01:28:32.032Z,1.38
2023-09-20T01:31:01.614Z,3.88
2023-09-20T01:33:28.719Z,0.50
2023-09-20T01:35:55.604Z,2.17
2023-09-20T01:38:22.429Z,5.40
2023-09-20T01:40:49.486Z,2.03
2023-09-20T01:43:16.310Z,2.90
2023-09-20T01:45:46.248Z,0.40
2023-09-20T01:48:14.086Z,1.60
2023-09-20T01:50:43.792Z,0.68
2023-09-20T01:53:12.639Z,2.33
2023-09-20T01:55:43.987Z,0.55
2023-09-20T01:58:15.193Z,1.30
2023-09-20T02:00:42.920Z,2.03
2023-09-20T02:03:16.132Z,0.65
2023-09-20T02:05:45.194Z,2.80
2023-09-20T02:08:11.980Z,1.98
2023-09-20T02:10:39.599Z,2.22
2023-09-20T02:13:07.261Z,0.90
2023-09-20T02:15:42.032Z,0.98
2023-09-20T02:18:10.481Z,0.90
2023-09-20T02:20:39.698Z,1.42
2023-09-20T02:23:09.310Z,0.52
2023-09-20T02:25:36.549Z,3.20
2023-09-20T02:28:04.824Z,0.20
2023-09-20T02:30:37.322Z,2.08
2023-09-20T02:33:07.139Z,1.65
2023-09-20T02:35:35.533Z,1.15
2023-09-20T02:38:06.265Z,0.47
2023-09-20T02:40:36.885Z,1.08
2023-09-20T02:43:04.917Z,0.55
2023-09-20T02:45:34.639Z,1.35
2023-09-20T02:48:08.129Z,2.72
2023-09-20T02:50:36.546Z,0.75
2023-09-20T02:53:05.176Z,1.10
2023-09-20T02:55:34.886Z,1.85
2023-09-20T02:58:01.729Z,0.40
2023-09-20T03:00:31.981Z,0.47
2023-09-20T03:03:02.831Z,1.10
2023-09-20T03:05:35.376Z,3.38
2023-09-20T03:08:05.747Z,1.55
2023-09-20T03:10:39.205Z,1.35
2023-09-20T03:13:07.362Z,1.40
2023-09-20T03:15:37.406Z,5.70
2023-09-20T03:18:06.556Z,1.48
2023-09-20T03:20:34.266Z,0.70
2023-09-20T03:23:04.620Z,2.03
2023-09-20T03:25:37.473Z,5.00
2023-09-20T03:28:06.160Z,0.52
2023-09-20T03:30:38.895Z,0.63
2023-09-20T03:33:08.197Z,0.77
2023-09-20T03:35:35.779Z,1.23
2023-09-20T03:38:05.926Z,0.98
2023-09-20T03:40:33.398Z,1.77
2023-09-20T03:43:00.357Z,0.73
2023-09-20T03:45:29.456Z,1.33
2023-09-20T03:47:58.929Z,1.95
2023-09-20T03:50:30.147Z,1.65
2023-09-20T03:52:57.200Z,1.08
2023-09-20T03:55:24.685Z,1.65
2023-09-20T03:57:52.066Z,2.70
2023-09-20T04:00:26.173Z,1.35
2023-09-20T04:02:55.141Z,2.17
2023-09-20T04:05:38.979Z,0.50
2023-09-20T04:08:09.643Z,0.88
2023-09-20T04:10:36.703Z,1.90
2023-09-20T04:13:07.590Z,1.15
2023-09-20T04:15:34.723Z,0.70
2023-09-20T04:18:09.509Z,3.63
2023-09-20T04:20:36.986Z,0.40
2023-09-20T04:23:04.717Z,2.63
2023-09-20T04:25:31.554Z,0.40
2023-09-20T04:27:58.562Z,0.30
2023-09-20T04:30:30.230Z,0.60
2023-09-20T04:32:57.218Z,1.23
2023-09-20T04:35:24.243Z,0.90
2023-09-20T04:37:51.144Z,0.50
2023-09-20T04:40:18.063Z,1.58
2023-09-20T04:42:45.140Z,1.88
2023-09-20T04:45:16.161Z,1.27
2023-09-20T04:47:44.131Z,0.80
2023-09-20T04:50:13.411Z,2.22
2023-09-20T04:52:42.549Z,0.80
2023-09-20T04:55:11.680Z,1.25
2023-09-20T04:57:38.841Z,2.13
2023-09-20T05:00:08.808Z,1.63
2023-09-20T05:02:35.838Z,0.98
2023-09-20T05:05:05.281Z,1.25
2023-09-20T05:07:32.408Z,0.65
2023-09-20T05:09:59.223Z,1.85
2023-09-20T05:12:26.301Z,0.52
2023-09-20T05:14:53.371Z,4.57
2023-09-20T05:17:20.240Z,0.50
2023-09-20T05:19:47.524Z,0.60
2023-09-20T05:22:14.375Z,1.90
2023-09-20T05:24:41.119Z,1.27
2023-09-20T05:27:08.081Z,0.93
2023-09-20T05:29:38.058Z,0.63
2023-09-20T05:32:05.361Z,2.95
2023-09-20T05:34:32.220Z,2.47
2023-09-20T05:36:59.023Z,1.45
2023-09-20T05:39:25.827Z,0.55
2023-09-20T05:41:52.782Z,1.40
2023-09-20T05:44:20.541Z,1.25
2023-09-20T05:46:50.899Z,1.05
2023-09-20T05:49:18.292Z,3.17
2023-09-20T05:51:45.744Z,1.75
2023-09-20T05:54:13.109Z,7.07
2023-09-20T05:56:40.120Z,4.80
2023-09-20T05:59:09.573Z,3.45
2023-09-20T06:01:41.085Z,8.13
2023-09-20T06:06:38.830Z,8.50
2023-09-20T06:09:06.497Z,16.75
2023-09-20T06:11:33.574Z,17.30
2023-09-20T06:14:00.467Z,7.72
2023-09-20T06:16:27.576Z,15.88
2023-09-20T06:19:04.936Z,13.55
2023-09-20T06:21:33.533Z,12.07
2023-09-20T06:24:00.964Z,21.00
2023-09-20T06:26:28.651Z,19.35
2023-09-20T06:28:56.577Z,19.98
2023-09-20T06:31:23.402Z,15.43
2023-09-20T06:33:51.064Z,20.75
2023-09-20T06:36:19.439Z,17.10
2023-09-20T06:38:48.473Z,24.15
2023-09-20T06:41:16.459Z,15.07
2023-09-20T06:43:43.830Z,20.55
2023-09-20T06:46:11.613Z,14.75
2023-09-20T06:48:39.380Z,20.40
2023-09-20T06:51:09.767Z,18.45
2023-09-20T06:53:38.751Z,16.33
2023-09-20T06:56:06.028Z,22.42
2023-09-20T06:58:35.610Z,17.25
2023-09-20T07:01:04.581Z,18.63
2023-09-20T07:03:33.784Z,21.73
2023-09-20T07:06:04.109Z,19.23
2023-09-20T07:08:32.897Z,17.23
2023-09-20T07:10:59.749Z,16.17
2023-09-20T07:13:27.788Z,16.75
2023-09-20T07:16:05.883Z,21.52
2023-09-20T07:18:37.566Z,17.77
2023-09-20T07:21:05.890Z,22.40
2023-09-20T07:23:32.918Z,18.17
2023-09-20T07:26:00.604Z,15.65
2023-09-20T07:28:27.650Z,14.73
2023-09-20T07:30:56.547Z,14.15
2023-09-20T07:33:31.398Z,21.60
2023-09-20T07:36:06.915Z,15.00
2023-09-20T07:38:36.581Z,18.98
2023-09-20T07:41:14.833Z,20.08
2023-09-20T07:43:49.030Z,11.00
2023-09-20T07:46:16.784Z,13.93
2023-09-20T07:48:52.096Z,19.77
2023-09-20T07:51:27.099Z,21.63
2023-09-20T07:53:57.899Z,18.60
2023-09-20T07:56:25.432Z,17.60
2023-09-20T07:58:55.158Z,20.75
2023-09-20T08:01:24.015Z,20.00
2023-09-20T08:03:55.465Z,17.15
2023-09-20T08:06:26.874Z,16.58
2023-09-20T08:08:53.798Z,19.63
2023-09-20T08:11:22.399Z,19.80
2023-09-20T08:13:54.501Z,17.38
2023-09-20T08:16:23.130Z,18.80
2023-09-20T08:19:09.826Z,16.60
2023-09-20T08:21:37.747Z,16.05
2023-09-20T08:24:24.601Z,14.07
2023-09-20T08:27:11.252Z,18.65
2023-09-20T08:29:59.701Z,17.40
2023-09-20T08:32:46.566Z,17.80
2023-09-20T08:35:32.539Z,22.17
2023-09-20T08:38:18.359Z,18.33
2023-09-20T08:41:04.629Z,15.38
2023-09-20T08:43:50.246Z,19.35
2023-09-20T08:46:37.594Z,20.48
2023-09-20T08:49:25.923Z,16.40
2023-09-20T08:52:24.051Z,9.57
2023-09-20T08:55:09.460Z,19.40
2023-09-20T08:57:55.707Z,16.67
2023-09-20T09:00:25.772Z,17.83
2023-09-20T09:02:55.439Z,17.73
2023-09-20T09:05:24.793Z,12.52
2023-09-20T09:07:51.817Z,17.33
2023-09-20T09:10:19.431Z,17.00
2023-09-20T09:12:47.181Z,15.45
2023-09-20T09:15:22.011Z,12.73
2023-09-20T09:17:49.228Z,25.33
2023-09-20T09:20:20.444Z,15.57
2023-09-20T09:25:20.007Z,11.00
2023-09-20T09:27:49.991Z,14.95
2023-09-20T09:30:18.479Z,17.08
2023-09-20T09:32:50.345Z,13.70
2023-09-20T09:35:27.699Z,15.77
2023-09-20T09:38:03.702Z,15.27
2023-09-20T09:40:30.872Z,17.20
2023-09-20T09:43:12.878Z,10.35
2023-09-20T09:45:40.210Z,14.00
2023-09-20T09:48:08.649Z,9.60
2023-09-20T09:50:40.072Z,10.13
2023-09-20T09:55:38.958Z,14.52
2023-09-20T09:58:06.024Z,9.98
2023-09-20T10:00:37.793Z,14.68
2023-09-20T10:03:26.447Z,13.40
2023-09-20T10:06:02.924Z,13.48
2023-09-20T10:08:35.628Z,7.93
2023-09-20T10:11:03.353Z,11.30
2023-09-20T10:13:31.989Z,11.98
2023-09-20T10:16:02.434Z,14.70
2023-09-20T10:18:33.617Z,11.97
2023-09-20T10:21:12.188Z,12.05
2023-09-20T10:23:39.751Z,12.65
2023-09-20T10:26:20.681Z,18.63
2023-09-20T10:28:51.064Z,13.38
2023-09-20T10:31:19.135Z,13.05
2023-09-20T10:33:49.886Z,13.63
2023-09-20T10:36:23.669Z,9.60
2023-09-20T10:39:23.199Z,11.07
2023-09-20T10:41:52.727Z,11.82
2023-09-20T10:44:30.930Z,15.18
2023-09-20T10:47:02.006Z,17.33
2023-09-20T10:49:49.181Z,15.05
2023-09-20T10:52:39.632Z,24.80
2023-09-20T10:55:41.250Z,9.95
2023-09-20T10:58:08.730Z,14.73
2023-09-20T11:00:36.455Z,10.40
2023-09-20T11:03:11.002Z,12.70
2023-09-20T11:05:39.665Z,11.60
2023-09-20T11:08:10.388Z,13.32
2023-09-20T11:10:40.983Z,13.00
2023-09-20T11:13:12.000Z,7.95
2023-09-20T11:15:48.166Z,9.10
2023-09-20T11:18:21.134Z,12.68
2023-09-20T11:20:51.349Z,9.75
2023-09-20T11:23:18.548Z,9.38
2023-09-20T11:25:45.580Z,15.07
2023-09-20T11:28:14.063Z,11.93
2023-09-20T11:30:49.654Z,12.77
2023-09-20T11:33:33.058Z,9.20
2023-09-20T11:36:00.325Z,9.38
2023-09-20T11:38:28.059Z,11.25
2023-09-20T11:40:55.026Z,8.25
2023-09-20T11:43:22.239Z,7.82
2023-09-20T11:46:01.071Z,23.13
2023-09-20T11:48:33.271Z,10.98
2023-09-20T11:51:06.305Z,9.07
2023-09-20T11:53:33.954Z,6.90
2023-09-20T11:56:09.160Z,11.30
2023-09-20T11:58:38.151Z,15.02
2023-09-20T12:01:12.552Z,8.52
2023-09-20T12:03:40.006Z,7.60
2023-09-20T12:06:09.876Z,10.68
2023-09-20T12:08:36.871Z,9.75
2023-09-20T12:11:07.222Z,12.02
2023-09-20T12:13:33.960Z,11.43
2023-09-20T12:16:04.018Z,8.98
2023-09-20T12:18:35.196Z,3.08
2023-09-20T12:21:02.127Z,5.32
2023-09-20T12:23:29.065Z,6.75
2023-09-20T12:25:59.067Z,4.53
2023-09-20T12:28:29.262Z,5.07
2023-09-20T12:30:59.441Z,7.03
2023-09-20T12:33:26.982Z,7.93
2023-09-20T12:35:55.259Z,8.90
2023-09-20T12:38:23.315Z,7.38
2023-09-20T12:40:50.776Z,8.30
2023-09-20T12:43:17.590Z,10.10
2023-09-20T12:45:47.807Z,13.15
2023-09-20T12:48:15.212Z,8.57
2023-09-20T12:50:43.941Z,11.30
2023-09-20T12:53:11.273Z,6.78
2023-09-20T12:55:40.231Z,10.95
2023-09-20T12:58:08.663Z,10.23
2023-09-20T13:00:46.521Z,10.13
2023-09-20T13:03:14.994Z,9.00
2023-09-20T13:05:44.636Z,18.42
2023-09-20T13:08:12.078Z,10.35
2023-09-20T13:10:39.410Z,9.95
2023-09-20T13:13:10.019Z,11.05
2023-09-20T13:15:40.289Z,5.83
2023-09-20T13:18:08.141Z,11.30
2023-09-20T13:20:38.547Z,16.33
2023-09-20T13:23:08.927Z,9.73
2023-09-20T13:25:36.389Z,8.85
2023-09-20T13:28:05.503Z,12.98
2023-09-20T13:30:32.971Z,13.70
2023-09-20T13:33:02.116Z,11.85
2023-09-20T13:35:29.200Z,9.32
2023-09-20T13:37:56.173Z,11.73
2023-09-20T13:40:25.123Z,10.95
2023-09-20T13:42:51.962Z,13.85
2023-09-20T13:45:19.879Z,10.50
2023-09-20T13:47:50.618Z,5.57
2023-09-20T13:50:18.213Z,12.27
2023-09-20T13:52:49.181Z,5.97
2023-09-20T13:55:25.961Z,9.50
2023-09-20T13:57:55.705Z,6.97
2023-09-20T14:00:22.705Z,8.90
2023-09-20T14:02:49.721Z,10.18
2023-09-20T14:05:17.630Z,12.27
2023-09-20T14:07:48.942Z,8.27
2023-09-20T14:10:21.250Z,7.70
2023-09-20T14:12:48.687Z,9.95
2023-09-20T14:15:19.999Z,6.60
2023-09-20T14:20:28.320Z,8.73
2023-09-20T14:22:56.108Z,4.68
2023-09-20T14:25:24.435Z,8.05
2023-09-20T14:27:52.440Z,6.60
2023-09-20T14:30:22.642Z,7.75
2023-09-20T14:32:52.456Z,5.88
2023-09-20T14:35:19.468Z,8.88
2023-09-20T14:37:52.447Z,4.65
2023-09-20T14:40:23.582Z,6.80
2023-09-20T14:42:53.584Z,7.72
2023-09-20T14:45:22.811Z,6.05
2023-09-20T14:47:53.411Z,6.18
2023-09-20T14:50:21.280Z,8.50
2023-09-20T14:52:49.154Z,8.43
2023-09-20T14:55:19.740Z,7.20
2023-09-20T14:57:56.383Z,7.43
2023-09-20T15:00:25.591Z,6.80
2023-09-20T15:02:55.560Z,6.70
2023-09-20T15:05:23.150Z,4.65
2023-09-20T15:07:54.884Z,8.30
2023-09-20T15:10:23.877Z,8.55
2023-09-20T15:12:59.497Z,10.70
2023-09-20T15:15:37.026Z,9.30
2023-09-20T15:18:06.177Z,6.65
2023-09-20T15:20:33.282Z,9.98
2023-09-20T15:23:01.318Z,10.35
2023-09-20T15:25:31.408Z,10.52
2023-09-20T15:27:59.516Z,9.27
2023-09-20T15:30:26.712Z,8.20
2023-09-20T15:32:53.835Z,10.57
2023-09-20T15:35:21.024Z,8.30
2023-09-20T15:37:49.354Z,7.53
2023-09-20T15:40:17.542Z,8.30
2023-09-20T15:42:46.973Z,13.77
2023-09-20T15:45:18.107Z,13.63
2023-09-20T15:47:45.673Z,8.90
2023-09-20T15:50:16.400Z,13.32
2023-09-20T15:52:43.378Z,6.35
2023-09-20T15:55:16.484Z,8.02
2023-09-20T15:57:47.498Z,6.20
2023-09-20T16:00:16.208Z,6.07
2023-09-20T16:02:44.444Z,4.13
2023-09-20T16:05:12.414Z,7.78
2023-09-20T16:07:42.138Z,8.35
2023-09-20T16:10:14.584Z,7.75
2023-09-20T16:12:46.132Z,6.97
2023-09-20T16:15:14.845Z,13.93
2023-09-20T16:17:42.186Z,10.65
2023-09-20T16:20:09.667Z,9.43
2023-09-20T16:22:36.698Z,10.85
2023-09-20T16:25:04.534Z,11.27
2023-09-20T16:27:32.061Z,16.42
2023-09-20T16:29:59.588Z,11.07
2023-09-20T16:32:26.686Z,10.23
2023-09-20T16:34:53.936Z,6.70
2023-09-20T16:37:21.121Z,6.45
2023-09-20T16:39:47.939Z,14.65
2023-09-20T16:42:14.740Z,11.30
2023-09-20T16:44:43.367Z,12.57
2023-09-20T16:47:11.133Z,8.45
2023-09-20T16:49:38.195Z,12.00
2023-09-20T16:52:05.688Z,11.93
2023-09-20T16:54:33.194Z,7.97
2023-09-20T16:57:00.410Z,18.67
2023-09-20T16:59:27.741Z,7.10
2023-09-20T17:01:58.135Z,11.07
2023-09-20T17:04:27.154Z,9.10
2023-09-20T17:06:54.153Z,8.73
2023-09-20T17:09:24.259Z,18.55
2023-09-20T17:11:51.817Z,14.65
2023-09-20T17:14:19.212Z,10.63
2023-09-20T17:16:46.213Z,13.15
2023-09-20T17:19:13.075Z,12.43
2023-09-20T17:21:41.690Z,9.27
2023-09-20T17:24:10.605Z,10.45
2023-09-20T17:26:40.779Z,9.38
2023-09-20T17:29:07.533Z,9.43
2023-09-20T17:31:37.904Z,12.15
2023-09-20T17:34:07.001Z,15.57
2023-09-20T17:36:36.065Z,8.98
2023-09-20T17:39:05.588Z,9.90
2023-09-20T17:41:32.460Z,12.80
2023-09-20T17:43:59.918Z,9.35
2023-09-20T17:46:27.322Z,12.05
2023-09-20T17:48:55.251Z,14.70
2023-09-20T17:51:22.250Z,14.05
2023-09-20T17:53:49.116Z,10.73
2023-09-20T17:56:20.395Z,15.02
2023-09-20T17:58:47.932Z,14.40
2023-09-20T18:01:15.631Z,11.52
2023-09-20T18:03:43.506Z,12.73
2023-09-20T18:06:14.263Z,10.85
2023-09-20T18:08:42.120Z,13.93
2023-09-20T18:11:12.485Z,14.07
2023-09-20T18:13:41.284Z,11.73
2023-09-20T18:16:13.025Z,14.30
2023-09-20T18:18:40.748Z,11.13
2023-09-20T18:21:13.231Z,12.32
2023-09-20T18:23:41.777Z,13.90
2023-09-20T18:26:16.759Z,7.93
2023-09-20T18:28:45.133Z,12.45
2023-09-20T18:31:17.073Z,10.63
2023-09-20T18:33:49.543Z,15.05
2023-09-20T18:36:18.400Z,8.80
2023-09-20T18:38:46.329Z,10.23
2023-09-20T18:41:16.228Z,13.52
2023-09-20T18:43:47.116Z,12.75
2023-09-20T18:46:15.546Z,7.57
2023-09-20T18:48:43.058Z,15.77
2023-09-20T18:51:10.451Z,12.25
2023-09-20T18:53:37.467Z,11.60
2023-09-20T18:56:04.736Z,13.30
2023-09-20T18:58:34.560Z,6.68
2023-09-20T19:01:11.744Z,10.15
2023-09-20T19:03:38.626Z,11.35
2023-09-20T19:06:05.598Z,16.48
2023-09-20T19:08:32.587Z,11.75
2023-09-20T19:10:59.581Z,10.88
2023-09-20T19:13:28.980Z,9.27
2023-09-20T19:15:56.610Z,11.63
2023-09-20T19:18:24.345Z,15.13
2023-09-20T19:20:52.149Z,11.88
2023-09-20T19:23:18.972Z,8.68
2023-09-20T19:25:47.332Z,10.13
2023-09-20T19:28:14.650Z,5.97
2023-09-20T19:30:41.672Z,9.43
2023-09-20T19:33:08.818Z,8.93
2023-09-20T19:35:38.670Z,8.88
2023-09-20T19:38:05.953Z,8.55
2023-09-20T19:40:32.909Z,14.45
2023-09-20T19:42:59.845Z,10.23
2023-09-20T19:45:27.918Z,13.23
2023-09-20T19:47:55.944Z,10.88
2023-09-20T19:50:23.780Z,10.50
2023-09-20T19:52:51.073Z,12.52
2023-09-20T19:55:26.125Z,5.03
2023-09-20T19:57:54.401Z,8.60
2023-09-20T20:00:29.509Z,5.90
2023-09-20T20:02:58.529Z,10.18
2023-09-20T20:05:26.664Z,10.57
2023-09-20T20:07:58.926Z,7.15
2023-09-20T20:10:28.169Z,8.10
2023-09-20T20:12:58.033Z,8.98
2023-09-20T20:15:34.714Z,10.88
2023-09-20T20:18:03.362Z,5.60
2023-09-20T20:20:34.342Z,6.97
2023-09-20T20:23:02.729Z,8.15
2023-09-20T20:25:40.618Z,8.63
2023-09-20T20:28:27.335Z,9.07
2023-09-20T20:30:54.180Z,11.48
2023-09-20T20:33:21.041Z,7.88
2023-09-20T20:35:48.999Z,9.13
2023-09-20T20:38:19.688Z,8.73
2023-09-20T20:40:47.122Z,6.78
2023-09-20T20:43:15.272Z,7.80
2023-09-20T20:45:45.258Z,8.57
2023-09-20T20:48:13.543Z,7.28
2023-09-20T20:50:42.247Z,9.38
2023-09-20T20:53:14.202Z,9.35
2023-09-20T20:55:42.659Z,10.77
2023-09-20T20:58:14.348Z,10.30
2023-09-20T21:00:52.101Z,7.80
2023-09-20T21:03:21.005Z,8.90
2023-09-20T21:05:50.440Z,9.25
2023-09-20T21:08:18.749Z,11.20
2023-09-20T21:10:46.139Z,9.75
2023-09-20T21:13:13.655Z,7.70
2023-09-20T21:15:41.923Z,5.75
2023-09-20T21:18:18.167Z,9.00
2023-09-20T21:20:54.045Z,8.73
2023-09-20T21:23:20.916Z,8.63
2023-09-20T21:25:50.600Z,6.75
2023-09-20T21:28:17.604Z,8.20
2023-09-20T21:30:48.028Z,7.88
2023-09-20T21:33:15.061Z,7.30
2023-09-20T21:35:42.545Z,6.90
2023-09-20T21:38:09.445Z,6.00
2023-09-20T21:40:39.316Z,9.30
2023-09-20T21:43:09.911Z,7.30
2023-09-20T21:45:37.860Z,6.32
2023-09-20T21:48:05.973Z,11.90
2023-09-20T21:50:33.108Z,7.53
2023-09-20T21:53:00.770Z,7.65
2023-09-20T21:55:30.189Z,10.15
2023-09-20T21:57:57.595Z,6.13
2023-09-20T22:00:30.706Z,9.05
2023-09-20T22:03:00.391Z,10.45
2023-09-20T22:05:31.283Z,8.38
2023-09-20T22:08:01.632Z,10.95
2023-09-20T22:10:33.873Z,6.70
2023-09-20T22:13:02.198Z,9.68
2023-09-20T22:15:29.081Z,9.38
2023-09-20T22:17:59.715Z,9.55
2023-09-20T22:20:26.893Z,9.82
2023-09-20T22:22:58.208Z,7.65
2023-09-20T22:25:26.061Z,8.40
2023-09-20T22:27:54.601Z,9.10
2023-09-20T22:30:21.829Z,5.72
2023-09-20T22:32:50.939Z,6.88
2023-09-20T22:35:22.090Z,5.28
2023-09-20T22:37:51.281Z,10.52
2023-09-20T22:40:21.940Z,5.65
2023-09-20T22:42:50.435Z,8.38
2023-09-20T22:45:28.224Z,5.90
2023-09-20T22:48:01.005Z,7.18
2023-09-20T22:50:32.173Z,10.07
2023-09-20T22:53:07.353Z,8.38
2023-09-20T22:55:38.249Z,6.20
2023-09-20T22:58:05.062Z,9.77
2023-09-20T23:00:34.582Z,9.57
2023-09-20T23:03:01.995Z,6.15
2023-09-20T23:05:29.387Z,9.45
2023-09-20T23:07:56.612Z,8.18
2023-09-20T23:10:33.134Z,8.90
2023-09-20T23:13:04.128Z,9.30
2023-09-20T23:15:36.914Z,9.32
2023-09-20T23:18:04.385Z,10.00
2023-09-20T23:20:38.290Z,9.75
2023-09-20T23:23:07.270Z,6.97
2023-09-20T23:25:45.350Z,9.00
2023-09-20T23:28:15.504Z,7.47
2023-09-20T23:30:47.661Z,11.85
2023-09-20T23:33:16.200Z,12.25
2023-09-20T23:35:54.934Z,6.72
2023-09-20T23:38:26.359Z,5.68
2023-09-20T23:40:53.428Z,5.55
2023-09-20T23:43:20.831Z,7.68
2023-09-20T23:45:48.118Z,10.43
2023-09-20T23:48:18.851Z,10.02
2023-09-20T23:50:47.022Z,6.13
2023-09-20T23:53:14.611Z,12.88
2023-09-20T23:55:44.454Z,10.18
2023-09-20T23:58:13.109Z,10.20
